Time;durP1;ratioP1;P1;durP2;ratioP2;P2;SDS_P1;SDS_P2;PMS_P1;PMS_P2;Temp;Humidity;BMP_temperature;BMP_pressure;BME280_temperature;BME280_humidity;BME280_pressure;Samples;Min_cycle;Max_cycle;Signal;HPM_P1;HPM_P2
2023/04/19 00:00:13;;;;;;;1.10;1.00;;;;;;;8.14;65.62;101609.78;4993310;28;20526;-78
2023/04/19 00:02:40;;;;;;;0.23;0.20;;;;;;;8.15;66.01;101607.91;4993860;28;20553;-78
2023/04/19 00:05:06;;;;;;;0.70;0.70;;;;;;;8.11;66.21;101613.06;4992501;28;20180;-78
2023/04/19 00:07:31;;;;;;;0.63;0.50;;;;;;;8.10;66.44;101600.53;4992419;28;20177;-78
2023/04/19 00:09:57;;;;;;;9.17;2.50;;;;;;;8.05;66.53;101608.66;4993647;28;20177;-77
2023/04/19 00:12:22;;;;;;;2.47;2.27;;;;;;;8.03;66.50;101608.09;4993742;28;20534;-78
2023/04/19 00:14:47;;;;;;;0.53;0.53;;;;;;;7.98;66.71;101600.75;4993682;28;20272;-77
2023/04/19 00:17:13;;;;;;;0.40;0.33;;;;;;;7.96;66.58;101610.28;4993615;28;20209;-78
2023/04/19 00:19:38;;;;;;;3.20;2.53;;;;;;;7.93;67.01;101597.16;4992651;28;20188;-77
2023/04/19 00:22:03;;;;;;;1.80;1.47;;;;;;;7.94;64.68;101585.19;4993719;28;20639;-77
2023/04/19 00:24:29;;;;;;;0.97;0.97;;;;;;;7.90;62.86;101570.50;4993374;28;20223;-77
2023/04/19 00:26:56;;;;;;;2.10;2.00;;;;;;;7.88;61.46;101559.88;4992355;28;20177;-77
2023/04/19 00:29:21;;;;;;;0.40;0.40;;;;;;;7.88;60.00;101557.16;4993655;28;20177;-77
2023/04/19 00:31:47;;;;;;;0.60;0.60;;;;;;;7.84;60.09;101564.22;4993308;28;20177;-77
2023/04/19 00:34:12;;;;;;;0.17;0.17;;;;;;;7.86;59.72;101555.78;4991888;28;20197;-78
2023/04/19 00:36:37;;;;;;;0.53;0.53;;;;;;;7.83;59.79;101573.47;4993670;28;20240;-78
2023/04/19 00:39:03;;;;;;;0.00;0.00;;;;;;;7.78;60.57;101570.72;4993386;28;20216;-78
2023/04/19 00:41:28;;;;;;;1.47;1.37;;;;;;;7.76;59.41;101565.53;4992248;28;20267;-77
2023/04/19 00:43:54;;;;;;;1.73;1.40;;;;;;;7.74;59.49;101575.06;4993219;28;20619;-77
2023/04/19 00:46:20;;;;;;;1.87;1.67;;;;;;;7.65;59.09;101571.19;4993656;28;20178;-77
2023/04/19 00:48:46;;;;;;;1.00;0.77;;;;;;;7.62;58.85;101566.28;4993468;28;20169;-78
2023/04/19 00:51:11;;;;;;;0.30;0.20;;;;;;;7.57;59.47;101572.53;4993339;28;20169;-78
2023/04/19 00:53:37;;;;;;;2.00;1.40;;;;;;;7.51;59.64;101581.72;4993455;28;20587;-77
2023/04/19 00:56:04;;;;;;;0.40;0.40;;;;;;;7.44;60.41;101575.69;4992205;28;20751;-77
2023/04/19 00:58:30;;;;;;;0.80;0.80;;;;;;;7.34;61.09;101590.03;4992347;28;20205;-77
2023/04/19 01:00:56;;;;;;;2.17;1.97;;;;;;;7.18;61.60;101591.00;4993359;28;20253;-77
2023/04/19 01:03:21;;;;;;;0.30;0.30;;;;;;;7.14;61.51;101588.00;4993290;28;20244;-77
2023/04/19 01:05:47;;;;;;;0.27;0.27;;;;;;;7.00;62.09;101581.38;4993172;28;20169;-78
2023/04/19 01:08:13;;;;;;;1.03;0.90;;;;;;;6.88;62.57;101599.72;4993512;28;20240;-77
2023/04/19 01:10:38;;;;;;;2.47;1.63;;;;;;;6.70;63.59;101597.41;4994470;28;20196;-77
2023/04/19 01:13:04;;;;;;;2.23;2.13;;;;;;;6.61;63.64;101609.78;4996660;28;20225;-76
2023/04/19 01:15:30;;;;;;;0.63;0.63;;;;;;;6.50;64.38;101614.28;4995607;28;20177;-77
2023/04/19 01:17:56;;;;;;;1.97;1.30;;;;;;;6.46;64.80;101613.16;4996711;28;20201;-77
2023/04/19 01:20:21;;;;;;;0.40;0.40;;;;;;;6.36;64.78;101613.03;4997000;28;20192;-78
2023/04/19 01:22:47;;;;;;;3.37;0.47;;;;;;;6.29;65.12;101613.25;4994592;28;20177;-78
2023/04/19 01:25:12;;;;;;;2.33;2.23;;;;;;;6.16;65.66;101619.06;4995505;28;20181;-79
2023/04/19 01:27:37;;;;;;;0.77;0.77;;;;;;;6.06;66.47;101624.34;4994299;28;20204;-78
2023/04/19 01:30:03;;;;;;;1.07;0.77;;;;;;;5.94;67.32;101629.94;4995610;28;20259;-78
2023/04/19 01:32:28;;;;;;;0.27;0.27;;;;;;;5.85;67.93;101631.38;4993876;28;20189;-80
2023/04/19 01:34:54;;;;;;;1.30;1.10;;;;;;;5.72;68.47;101631.75;4994052;28;20184;-77
2023/04/19 01:37:19;;;;;;;2.07;1.87;;;;;;;5.60;69.19;101638.09;4995360;28;20193;-78
2023/04/19 01:39:45;;;;;;;3.73;2.00;;;;;;;5.54;69.26;101628.25;4995365;28;20187;-80
2023/04/19 01:42:10;;;;;;;0.90;0.20;;;;;;;5.47;69.98;101651.16;4995159;28;20320;-78
2023/04/19 01:44:35;;;;;;;2.63;0.67;;;;;;;5.41;70.35;101642.13;4994890;28;20193;-78
2023/04/19 01:47:01;;;;;;;2.23;1.00;;;;;;;5.31;70.55;101647.38;4993911;28;20188;-81
2023/04/19 01:49:26;;;;;;;0.30;0.30;;;;;;;5.26;70.78;101639.19;4995185;28;20177;-79
2023/04/19 01:51:51;;;;;;;0.10;0.10;;;;;;;5.20;71.38;101654.53;4994921;28;20192;-79
2023/04/19 01:54:16;;;;;;;0.00;0.00;;;;;;;5.14;71.89;101654.69;4994877;28;20197;-77
2023/04/19 01:56:42;;;;;;;0.10;0.10;;;;;;;5.09;72.30;101660.84;4993708;28;20681;-77
2023/04/19 01:59:07;;;;;;;0.40;0.40;;;;;;;5.02;72.65;101655.56;4994946;28;20653;-80
2023/04/19 02:01:32;;;;;;;0.47;0.47;;;;;;;4.95;72.48;101656.81;4994916;28;20710;-77
2023/04/19 02:03:58;;;;;;;0.50;0.50;;;;;;;4.95;72.49;101649.50;4994701;28;20256;-78
2023/04/19 02:06:23;;;;;;;0.80;0.80;;;;;;;4.88;72.84;101650.72;4993615;28;20195;-80
2023/04/19 02:08:49;;;;;;;0.27;0.27;;;;;;;4.83;72.94;101651.44;4994650;28;20177;-79
2023/04/19 02:11:14;;;;;;;0.57;0.57;;;;;;;4.74;73.83;101642.88;4994779;28;20196;-79
2023/04/19 02:13:40;;;;;;;0.03;0.03;;;;;;;4.75;73.90;101652.66;4994569;28;20695;-78
2023/04/19 02:16:06;;;;;;;0.20;0.20;;;;;;;4.70;74.01;101649.88;4993367;28;20177;-78
2023/04/19 02:18:34;;;;;;;0.20;0.10;;;;;;;4.70;74.40;101660.69;4994566;28;20235;-78
2023/04/19 02:21:00;;;;;;;0.10;0.10;;;;;;;4.65;74.60;101654.38;4994658;28;20255;-78
2023/04/19 02:23:26;;;;;;;0.00;0.00;;;;;;;4.62;74.99;101660.25;4993663;28;20272;-78
2023/04/19 02:25:51;;;;;;;0.60;0.60;;;;;;;4.60;74.84;101655.06;4994542;28;20538;-77
2023/04/19 02:28:16;;;;;;;0.23;0.23;;;;;;;4.61;75.00;101662.13;4994639;28;20174;-79
2023/04/19 02:30:42;;;;;;;4.87;1.73;;;;;;;4.62;75.79;101661.06;4994615;28;20181;-77
2023/04/19 02:33:07;;;;;;;0.87;0.30;;;;;;;4.58;75.74;101659.91;4994193;28;20268;-78
2023/04/19 02:35:33;;;;;;;1.37;1.00;;;;;;;4.54;76.21;101660.66;4993098;28;20708;-80
2023/04/19 02:38:03;;;;;;;0.67;0.50;;;;;;;4.49;76.32;101664.09;4992905;28;20200;-77
2023/04/19 02:40:28;;;;;;;1.30;0.83;;;;;;;4.44;77.02;101667.50;4994207;28;20180;-79
2023/04/19 02:42:53;;;;;;;0.70;0.70;;;;;;;4.38;77.24;101673.06;4993909;28;20279;-79
2023/04/19 02:45:19;;;;;;;3.67;1.63;;;;;;;4.33;77.18;101662.13;4994081;28;20215;-78
2023/04/19 02:47:45;;;;;;;1.03;0.90;;;;;;;4.31;77.75;101664.25;4994079;28;20273;-78
2023/04/19 02:50:11;;;;;;;0.87;0.80;;;;;;;4.25;77.73;101673.31;4994103;28;20599;-77
2023/04/19 02:52:37;;;;;;;0.40;0.37;;;;;;;4.21;77.74;101666.75;5011064;23;20260;-79
2023/04/19 02:55:03;;;;;;;0.70;0.70;;;;;;;4.18;78.45;101668.84;5006691;28;20196;-79
2023/04/19 02:57:29;;;;;;;1.03;1.03;;;;;;;4.11;78.69;101673.59;5004391;28;20208;-77
2023/04/19 02:59:54;;;;;;;0.00;0.00;;;;;;;4.05;79.03;101676.41;5005209;28;20173;-79
2023/04/19 03:02:20;;;;;;;0.10;0.10;;;;;;;4.00;79.46;101676.31;5006123;28;20219;-77
2023/04/19 03:04:46;;;;;;;0.60;0.60;;;;;;;3.94;79.68;101669.97;5003917;28;20283;-79
2023/04/19 03:07:12;;;;;;;0.70;0.70;;;;;;;3.87;80.27;101677.38;5006374;28;20165;-78
2023/04/19 03:09:37;;;;;;;0.10;0.10;;;;;;;3.84;80.28;101675.97;5004465;28;20208;-79
2023/04/19 03:12:03;;;;;;;1.10;1.00;;;;;;;3.80;80.86;101671.28;5005954;28;20641;-78
2023/04/19 03:14:28;;;;;;;0.37;0.37;;;;;;;3.75;80.76;101673.84;5005161;28;20197;-78
2023/04/19 03:16:53;;;;;;;2.77;0.93;;;;;;;3.72;81.25;101667.03;5003996;28;20225;-79
2023/04/19 03:19:19;;;;;;;15.83;0.93;;;;;;;3.69;81.78;101675.63;5005893;28;20203;-79
2023/04/19 03:21:44;;;;;;;0.37;0.37;;;;;;;3.65;82.04;101681.75;5006127;28;20169;-79
2023/04/19 03:24:09;;;;;;;1.23;1.13;;;;;;;3.53;82.11;101668.22;5004609;28;20247;-79
2023/04/19 03:26:35;;;;;;;0.00;0.00;;;;;;;3.54;82.61;101672.56;5002801;28;20556;-78
2023/04/19 03:29:00;;;;;;;0.00;0.00;;;;;;;3.53;83.07;101671.75;5003865;28;20184;-77
2023/04/19 03:31:26;;;;;;;0.00;0.00;;;;;;;3.50;83.32;101666.00;5004170;28;20185;-78
2023/04/19 03:33:51;;;;;;;3.90;0.70;;;;;;;3.40;83.67;101666.56;5002849;28;20539;-77
2023/04/19 03:36:16;;;;;;;0.20;0.20;;;;;;;3.35;84.56;101668.31;5003266;28;20368;-78
2023/04/19 03:38:43;;;;;;;0.00;0.00;;;;;;;3.36;84.45;101665.38;5002264;28;20205;-78
2023/04/19 03:41:25;;;;;;;0.17;0.17;;;;;;;3.31;84.61;101669.81;4992872;28;20177;-78
2023/04/19 03:43:50;;;;;;;0.00;0.00;;;;;;;3.26;85.37;101665.13;4992590;28;20173;-77
2023/04/19 03:46:16;;;;;;;0.00;0.00;;;;;;;3.24;85.83;101668.06;4993148;28;20184;-77
2023/04/19 03:48:41;;;;;;;0.00;0.00;;;;;;;3.22;86.26;101653.97;4994308;28;20181;-77
2023/04/19 03:51:06;;;;;;;0.00;0.00;;;;;;;3.18;85.92;101666.31;4994093;28;20184;-77
2023/04/19 03:53:32;;;;;;;0.00;0.00;;;;;;;3.16;85.95;101660.28;4992457;28;20181;-78
2023/04/19 03:55:57;;;;;;;2.80;0.77;;;;;;;3.12;86.95;101661.81;4992915;28;20539;-77
2023/04/19 03:58:22;;;;;;;0.00;0.00;;;;;;;3.07;87.27;101659.00;4993619;28;20681;-76
2023/04/19 04:00:48;;;;;;;0.00;0.00;;;;;;;3.09;87.62;101656.06;4994937;28;20185;-77
2023/04/19 04:03:13;;;;;;;0.10;0.10;;;;;;;3.04;87.88;101661.31;4995249;28;20184;-77
2023/04/19 04:05:38;;;;;;;0.40;0.40;;;;;;;2.99;88.17;101668.25;4994926;28;20193;-76
2023/04/19 04:08:04;;;;;;;0.30;0.10;;;;;;;3.02;88.36;101663.44;4996286;28;20200;-77
2023/04/19 04:10:29;;;;;;;0.10;0.10;;;;;;;2.96;88.76;101663.31;4995873;28;20188;-77
2023/04/19 04:12:55;;;;;;;0.20;0.20;;;;;;;2.97;88.71;101656.84;4996703;28;20197;-76
2023/04/19 04:15:20;;;;;;;24.27;1.07;;;;;;;2.97;89.11;101664.13;4996831;28;20193;-77
2023/04/19 04:17:45;;;;;;;6.03;4.23;;;;;;;2.94;89.21;101659.19;4996193;28;20205;-77
2023/04/19 04:20:12;;;;;;;0.00;0.00;;;;;;;2.93;89.31;101655.69;4996948;28;20180;-77
2023/04/19 04:22:41;;;;;;;0.10;0.10;;;;;;;2.92;89.68;101659.44;4995534;28;20180;-77
2023/04/19 04:25:08;;;;;;;0.30;0.30;;;;;;;2.95;89.63;101653.56;5000228;28;20215;-77
2023/04/19 04:27:33;;;;;;;0.00;0.00;;;;;;;2.95;89.82;101655.44;5000708;28;20184;-76
2023/04/19 04:30:00;;;;;;;0.67;0.67;;;;;;;2.95;89.98;101660.84;5001624;28;20204;-76
2023/04/19 04:32:25;;;;;;;0.57;0.40;;;;;;;3.03;90.10;101662.38;4999857;28;20184;-76
2023/04/19 04:34:51;;;;;;;0.37;0.30;;;;;;;2.94;90.42;101660.03;5000694;28;20386;-78
2023/04/19 04:37:16;;;;;;;0.00;0.00;;;;;;;2.94;90.66;101665.41;5001130;28;20220;-77
2023/04/19 04:39:42;;;;;;;0.27;0.27;;;;;;;3.04;90.60;101656.78;4998907;28;20219;-77
2023/04/19 04:42:07;;;;;;;0.00;0.00;;;;;;;3.03;90.48;101660.50;4998273;28;20169;-78
2023/04/19 04:44:36;;;;;;;0.00;0.00;;;;;;;3.02;90.83;101666.94;4996734;28;20196;-78
2023/04/19 04:47:01;;;;;;;0.30;0.30;;;;;;;3.07;91.03;101661.69;5002696;28;20221;-78
2023/04/19 04:49:28;;;;;;;0.00;0.00;;;;;;;3.09;91.08;101661.47;5001925;28;20244;-81
2023/04/19 04:51:53;;;;;;;0.20;0.20;;;;;;;3.13;91.13;101657.25;5001501;28;20649;-83
2023/04/19 04:54:18;;;;;;;0.00;0.00;;;;;;;3.13;91.26;101658.06;4996377;28;20263;-76
2023/04/19 04:56:44;;;;;;;0.07;0.07;;;;;;;3.18;91.33;101658.22;5000910;28;20179;-77
2023/04/19 04:59:10;;;;;;;0.40;0.40;;;;;;;3.24;91.03;101662.66;5000697;28;20256;-77
2023/04/19 05:01:35;;;;;;;0.00;0.00;;;;;;;3.27;91.07;101662.19;4999144;28;20173;-76
2023/04/19 05:04:00;;;;;;;0.13;0.13;;;;;;;3.22;90.82;101663.97;5000456;28;20184;-77
2023/04/19 05:06:26;;;;;;;0.00;0.00;;;;;;;3.25;90.95;101660.78;4998933;28;20181;-77
2023/04/19 05:08:51;;;;;;;36.73;0.83;;;;;;;3.28;91.18;101661.13;5001409;28;20169;-77
2023/04/19 05:11:17;;;;;;;0.50;0.50;;;;;;;3.29;90.91;101660.09;5002246;28;20268;-77
2023/04/19 05:13:42;;;;;;;0.83;0.10;;;;;;;3.36;90.66;101651.06;5001901;28;20183;-78
2023/04/19 05:16:07;;;;;;;0.40;0.40;;;;;;;3.39;90.77;101650.59;5004406;28;20190;-77
2023/04/19 05:18:33;;;;;;;0.10;0.10;;;;;;;3.46;90.38;101656.69;5005638;28;20216;-79
2023/04/19 05:20:58;;;;;;;0.23;0.23;;;;;;;3.58;90.44;101649.41;5007532;28;20173;-78
2023/04/19 05:23:24;;;;;;;2.30;1.03;;;;;;;3.65;89.71;101649.31;5005831;28;20262;-78
2023/04/19 05:25:49;;;;;;;0.60;0.50;;;;;;;3.76;89.23;101648.47;5003824;28;20215;-79
2023/04/19 05:28:14;;;;;;;1.03;0.90;;;;;;;3.84;88.13;101651.63;5005081;28;20580;-77
2023/04/19 05:30:40;;;;;;;0.90;0.90;;;;;;;3.96;88.08;101656.22;5003734;28;20180;-77
2023/04/19 05:33:05;;;;;;;0.87;0.80;;;;;;;4.03;87.55;101660.41;5004721;28;20404;-78
2023/04/19 05:35:30;;;;;;;5.60;2.30;;;;;;;4.08;86.76;101652.44;5006919;28;20665;-77
2023/04/19 05:37:56;;;;;;;1.07;0.93;;;;;;;4.19;86.89;101650.75;5004649;28;20611;-77
2023/04/19 05:40:23;;;;;;;0.27;0.27;;;;;;;4.24;86.21;101644.63;5002967;28;20188;-77
2023/04/19 05:42:48;;;;;;;0.20;0.20;;;;;;;4.37;86.15;101649.78;5002670;28;20501;-79
2023/04/19 05:45:15;;;;;;;1.67;1.57;;;;;;;4.40;85.38;101638.47;5003653;28;20193;-78
2023/04/19 05:47:40;;;;;;;0.37;0.37;;;;;;;4.51;85.19;101647.59;5002538;28;20650;-78
2023/04/19 05:50:06;;;;;;;0.50;0.50;;;;;;;4.64;84.81;101639.19;5003539;28;20188;-78
2023/04/19 05:52:32;;;;;;;3.03;1.53;;;;;;;4.63;83.81;101641.09;4999242;28;20284;-76
2023/04/19 05:54:58;;;;;;;0.57;0.37;;;;;;;4.71;83.49;101640.69;5003782;28;20197;-77
2023/04/19 05:57:23;;;;;;;3.13;1.90;;;;;;;4.78;82.91;101633.25;5004902;28;20661;-78
2023/04/19 05:59:48;;;;;;;1.03;0.93;;;;;;;4.87;82.47;101622.81;5005076;28;20185;-82
2023/04/19 06:02:14;;;;;;;0.03;0.03;;;;;;;5.03;82.28;101634.72;5002598;28;20177;-78
2023/04/19 06:04:40;;;;;;;0.20;0.20;;;;;;;5.19;81.96;101635.81;4999342;28;20204;-76
2023/04/19 06:07:06;;;;;;;1.50;1.10;;;;;;;5.08;80.95;101624.00;5001010;28;20641;-83
2023/04/19 06:09:31;;;;;;;3.77;0.90;;;;;;;5.23;80.61;101634.28;4999432;28;20316;-79
2023/04/19 06:11:56;;;;;;;0.27;0.17;;;;;;;5.29;80.54;101627.84;4999451;28;20173;-81
2023/04/19 06:14:26;;;;;;;0.73;0.73;;;;;;;5.43;80.53;101633.75;4995891;28;20193;-84
2023/04/19 06:16:51;;;;;;;1.37;1.27;;;;;;;5.49;79.67;101633.56;5000144;28;20200;-78
2023/04/19 06:19:17;;;;;;;4.07;0.10;;;;;;;5.62;79.80;101632.41;5000745;28;20169;-78
2023/04/19 06:21:42;;;;;;;1.03;1.00;;;;;;;5.82;79.44;101626.47;4999709;28;20177;-83
2023/04/19 06:24:07;;;;;;;0.73;0.40;;;;;;;5.80;78.53;101621.31;4994978;28;20273;-80
2023/04/19 06:26:34;;;;;;;0.30;0.30;;;;;;;5.83;78.19;101625.41;4997937;28;20539;-85
2023/04/19 06:29:00;;;;;;;0.93;0.80;;;;;;;5.84;77.74;101621.63;4998751;28;20235;-84
2023/04/19 06:31:25;;;;;;;3.57;0.90;;;;;;;5.93;77.40;101620.13;4999425;28;20583;-79
2023/04/19 06:33:50;;;;;;;3.43;1.20;;;;;;;5.83;77.12;101615.38;4993395;28;20276;-78
2023/04/19 06:36:16;;;;;;;2.13;1.93;;;;;;;5.90;77.35;101618.72;5000335;28;20181;-81
2023/04/19 06:38:43;;;;;;;0.87;0.67;;;;;;;6.01;77.21;101616.16;4992605;28;20696;-79
2023/04/19 06:41:09;;;;;;;1.23;0.80;;;;;;;6.00;76.94;101622.66;4992398;28;20173;-78
2023/04/19 06:43:34;;;;;;;0.40;0.40;;;;;;;6.14;76.75;101613.88;4993328;28;20177;-84
2023/04/19 06:46:01;;;;;;;0.10;0.10;;;;;;;6.32;76.42;101623.59;4994835;28;20200;-76
2023/04/19 06:48:27;;;;;;;1.00;0.67;;;;;;;6.45;75.76;101611.53;4994723;28;20166;-78
2023/04/19 06:50:53;;;;;;;3.67;0.40;;;;;;;6.42;75.09;101607.44;4993346;28;20523;-77
2023/04/19 06:53:18;;;;;;;2.20;0.80;;;;;;;6.29;74.39;101596.16;4994087;28;20280;-77
2023/04/19 06:55:44;;;;;;;0.30;0.30;;;;;;;6.29;75.17;101610.53;4994713;28;20224;-77
2023/04/19 06:58:09;;;;;;;0.27;0.23;;;;;;;6.57;75.07;101612.19;4993909;28;20201;-76
2023/04/19 07:00:35;;;;;;;1.10;0.30;;;;;;;6.68;74.84;101605.00;4994829;28;20174;-77
2023/04/19 07:03:01;;;;;;;1.03;0.87;;;;;;;6.50;73.91;101587.13;4993454;28;20184;-76
2023/04/19 07:05:27;;;;;;;2.23;0.60;;;;;;;6.69;73.80;101593.03;4995479;28;20669;-77
2023/04/19 07:07:52;;;;;;;0.77;0.77;;;;;;;6.78;73.44;101586.06;4995122;28;20165;-77
2023/04/19 07:10:17;;;;;;;1.20;0.80;;;;;;;6.94;72.63;101587.81;4994294;28;20192;-77
2023/04/19 07:12:42;;;;;;;0.53;0.50;;;;;;;6.76;71.13;101574.63;4994166;28;20657;-76
2023/04/19 07:15:08;;;;;;;0.30;0.30;;;;;;;6.73;71.65;101573.25;4994171;28;20756;-78
2023/04/19 07:17:35;;;;;;;0.73;0.73;;;;;;;6.93;71.27;101574.50;4994813;28;20709;-76
2023/04/19 07:20:02;;;;;;;1.40;1.33;;;;;;;6.96;70.82;101572.09;4995563;28;20364;-77
2023/04/19 07:22:28;;;;;;;0.20;0.20;;;;;;;6.93;69.46;101572.59;4994104;28;20173;-78
2023/04/19 07:24:53;;;;;;;0.10;0.10;;;;;;;7.03;69.64;101572.69;4993178;28;20219;-77
2023/04/19 07:27:19;;;;;;;0.27;0.27;;;;;;;7.18;70.53;101573.88;4995667;28;20172;-78
2023/04/19 07:29:44;;;;;;;1.27;1.17;;;;;;;7.27;70.04;101572.34;4995012;28;20638;-78
2023/04/19 07:32:12;;;;;;;0.70;0.63;;;;;;;7.30;68.89;101559.03;4993768;28;20188;-78
2023/04/19 07:34:37;;;;;;;0.90;0.90;;;;;;;7.51;68.53;101559.97;4993951;28;20216;-76
2023/04/19 07:37:03;;;;;;;0.20;0.20;;;;;;;7.26;67.79;101548.94;4994404;28;20197;-77
2023/04/19 07:39:29;;;;;;;0.30;0.30;;;;;;;7.36;67.33;101554.44;4995845;28;20177;-77
2023/04/19 07:41:55;;;;;;;0.30;0.27;;;;;;;7.22;68.22;101558.69;4996342;28;20191;-77
2023/04/19 07:44:20;;;;;;;0.60;0.30;;;;;;;7.36;68.74;101557.16;4994891;28;20668;-76
2023/04/19 07:46:45;;;;;;;0.97;0.80;;;;;;;7.49;68.20;101556.69;4995946;28;20246;-77
2023/04/19 07:49:11;;;;;;;0.60;0.60;;;;;;;7.30;66.81;101545.44;4994976;28;20173;-76
2023/04/19 07:51:36;;;;;;;0.20;0.20;;;;;;;7.40;66.20;101544.69;4994728;28;20173;-77
2023/04/19 07:54:01;;;;;;;0.57;0.53;;;;;;;7.56;65.35;101540.16;4995752;28;20267;-78
2023/04/19 07:56:26;;;;;;;0.87;0.87;;;;;;;7.54;65.45;101536.88;4995557;28;20272;-76
2023/04/19 07:58:52;;;;;;;2.20;1.00;;;;;;;7.76;64.79;101543.78;4996230;28;20208;-78
2023/04/19 08:01:17;;;;;;;1.50;1.40;;;;;;;7.83;64.95;101531.84;4997079;28;20220;-77
2023/04/19 08:03:42;;;;;;;1.50;0.57;;;;;;;7.58;64.99;101535.25;4995346;28;20553;-78
2023/04/19 08:06:08;;;;;;;4.63;2.00;;;;;;;7.64;64.72;101529.56;4997514;28;20688;-78
2023/04/19 08:08:34;;;;;;;0.40;0.40;;;;;;;7.74;64.51;101532.34;4995273;28;20646;-77
2023/04/19 08:11:03;;;;;;;2.97;1.37;;;;;;;7.65;63.51;101522.22;4995337;28;20193;-77
2023/04/19 08:13:29;;;;;;;0.90;0.70;;;;;;;7.75;63.52;101519.56;4996117;28;20187;-77
2023/04/19 08:15:54;;;;;;;0.93;0.93;;;;;;;7.73;62.99;101519.00;4994933;28;20732;-77
2023/04/19 08:18:20;;;;;;;0.27;0.27;;;;;;;7.68;62.46;101508.94;4996709;28;20678;-77
2023/04/19 08:20:46;;;;;;;1.27;0.77;;;;;;;7.97;62.40;101505.78;4998986;28;20201;-78
2023/04/19 08:23:11;;;;;;;0.77;0.77;;;;;;;7.97;62.15;101511.22;5001428;28;20181;-77
2023/04/19 08:25:37;;;;;;;0.53;0.53;;;;;;;8.18;62.30;101512.91;5002619;28;20212;-77
2023/04/19 08:28:03;;;;;;;1.07;0.60;;;;;;;8.46;60.66;101502.63;5003655;28;20539;-77
2023/04/19 08:30:28;;;;;;;1.47;1.37;;;;;;;8.31;61.09;101504.22;5001943;28;20248;-79
2023/04/19 08:32:53;;;;;;;1.30;1.20;;;;;;;8.47;61.06;101490.63;5000283;28;20622;-78
2023/04/19 08:35:19;;;;;;;0.30;0.20;;;;;;;8.49;60.58;101486.56;5002492;28;20200;-78
2023/04/19 08:37:46;;;;;;;1.43;0.83;;;;;;;8.45;59.53;101476.50;5001571;28;20217;-77
2023/04/19 08:40:13;;;;;;;3.73;1.10;;;;;;;8.42;59.71;101480.56;5001249;28;20165;-78
2023/04/19 08:42:39;;;;;;;1.00;0.90;;;;;;;8.81;59.53;101494.44;5000699;28;20173;-79
2023/04/19 08:45:05;;;;;;;0.80;0.80;;;;;;;8.67;58.36;101477.00;5000363;28;20204;-78
2023/04/19 08:47:33;;;;;;;0.50;0.50;;;;;;;8.54;56.49;101467.50;5001894;28;20169;-78
2023/04/19 08:50:03;;;;;;;0.53;0.53;;;;;;;8.99;57.93;101471.28;4999895;28;20181;-78
2023/04/19 08:52:32;;;;;;;0.50;0.50;;;;;;;9.13;57.79;101466.06;5023010;23;20222;-86
2023/04/19 08:54:57;;;;;;;1.50;1.10;;;;;;;8.89;56.00;101442.13;5018514;28;20196;-87
2023/04/19 08:57:22;;;;;;;1.70;1.60;;;;;;;9.03;55.26;101439.66;5017168;28;20280;-86
2023/04/19 08:59:54;;;;;;;0.87;0.87;;;;;;;9.05;53.73;101428.47;5019625;28;20189;-87
2023/04/19 09:02:20;;;;;;;0.20;0.20;;;;;;;9.21;53.76;101435.50;5019846;28;20173;-85
2023/04/19 09:04:45;;;;;;;1.00;0.60;;;;;;;9.25;53.70;101428.38;5019681;28;20559;-86
2023/04/19 09:07:25;;;;;;;1.30;0.63;;;;;;;9.40;53.66;101427.50;5021596;28;20176;-87
2023/04/19 09:10:06;;;;;;;1.30;0.50;;;;;;;9.40;52.61;101412.00;5020564;28;20182;-87
2023/04/19 09:12:33;;;;;;;0.63;0.63;;;;;;;9.55;51.48;101413.84;5020576;28;20204;-87
2023/04/19 09:14:59;;;;;;;1.20;1.20;;;;;;;9.39;50.92;101407.59;5019893;28;20184;-86
2023/04/19 09:17:24;;;;;;;1.00;1.00;;;;;;;9.66;51.80;101409.13;5021527;28;20192;-86
2023/04/19 09:19:50;;;;;;;1.37;1.27;;;;;;;9.69;51.42;101405.81;5019000;28;20181;-84
2023/04/19 09:22:15;;;;;;;0.93;0.80;;;;;;;9.87;50.83;101398.91;5018509;28;20179;-85
2023/04/19 09:24:40;;;;;;;1.83;1.20;;;;;;;9.81;50.17;101400.84;5020178;28;20169;-85
2023/04/19 09:27:06;;;;;;;0.80;0.80;;;;;;;9.57;49.44;101369.91;5035513;28;20547;-86
2023/04/19 09:29:31;;;;;;;1.33;1.13;;;;;;;9.84;49.55;101376.53;5019385;28;20324;-86
2023/04/19 09:31:58;;;;;;;1.07;1.07;;;;;;;9.93;47.81;101365.00;5019014;28;20364;-85
2023/04/19 09:34:23;;;;;;;1.13;1.07;;;;;;;10.03;47.73;101343.91;5022167;28;20196;-85
2023/04/19 09:36:48;;;;;;;0.23;0.23;;;;;;;10.21;48.23;101350.63;5022003;28;20183;-85
2023/04/19 09:39:27;;;;;;;1.40;0.77;;;;;;;10.30;46.96;101337.97;5023006;28;20600;-86
2023/04/19 09:41:53;;;;;;;0.60;0.60;;;;;;;10.37;46.89;101351.28;5023284;28;20183;-85
2023/04/19 09:44:19;;;;;;;0.10;0.10;;;;;;;10.18;46.90;101336.69;5022046;28;20574;-86
2023/04/19 09:46:48;;;;;;;0.83;0.83;;;;;;;10.33;46.00;101321.00;5022724;28;20197;-86
2023/04/19 09:49:15;;;;;;;2.27;1.00;;;;;;;10.15;44.30;101294.41;5022873;28;20168;-85
2023/04/19 09:51:47;;;;;;;1.00;0.90;;;;;;;10.26;43.17;101298.66;5020951;28;20654;-85
2023/04/19 09:54:14;;;;;;;0.63;0.60;;;;;;;10.54;42.39;101285.28;5023404;28;20212;-85
2023/04/19 09:56:40;;;;;;;0.90;0.90;;;;;;;10.45;41.27;101273.38;5022318;28;20176;-85
2023/04/19 09:59:06;;;;;;;1.00;0.90;;;;;;;10.18;41.20;101269.25;5021581;28;20185;-85
2023/04/19 10:01:43;;;;;;;0.77;0.60;;;;;;;10.32;41.73;101270.22;5022125;28;20169;-85
2023/04/19 10:04:11;;;;;;;1.10;0.27;;;;;;;10.44;41.65;101288.94;5022196;28;20219;-85
2023/04/19 10:06:38;;;;;;;1.33;1.23;;;;;;;10.43;42.36;101285.41;5020327;28;20176;-85
2023/04/19 10:09:04;;;;;;;1.30;0.87;;;;;;;10.45;41.62;101279.66;5022795;28;20169;-86
2023/04/19 10:11:37;;;;;;;1.10;0.80;;;;;;;10.38;42.66;101281.91;5020248;28;20172;-86
2023/04/19 10:14:04;;;;;;;0.70;0.70;;;;;;;10.69;42.77;101293.28;5024904;28;20216;-85
2023/04/19 10:16:31;;;;;;;2.87;1.07;;;;;;;10.50;43.13;101284.22;5025901;28;20173;-86
2023/04/19 10:18:57;;;;;;;1.57;1.47;;;;;;;10.58;43.03;101289.06;5025937;28;20196;-87
2023/04/19 10:21:23;;;;;;;0.50;0.50;;;;;;;10.75;44.18;101280.41;5024845;28;20175;-85
2023/04/19 10:23:49;;;;;;;1.13;0.70;;;;;;;10.93;43.33;101293.28;5024171;28;20261;-85
2023/04/19 10:26:14;;;;;;;1.13;0.40;;;;;;;10.97;43.67;101297.06;5025740;28;20172;-87
2023/04/19 10:28:41;;;;;;;3.20;0.47;;;;;;;11.19;43.74;101300.06;5025721;28;20204;-87
2023/04/19 10:31:11;;;;;;;1.77;0.90;;;;;;;11.09;43.19;101278.31;5023788;28;20179;-86
2023/04/19 10:33:37;;;;;;;0.80;0.80;;;;;;;11.02;42.83;101256.81;5022608;28;20269;-86
2023/04/19 10:36:03;;;;;;;1.03;0.73;;;;;;;11.15;41.38;101259.91;5023131;28;20200;-87
2023/04/19 10:38:45;;;;;;;1.37;0.90;;;;;;;11.10;41.10;101249.84;5022561;28;20197;-86
2023/04/19 10:41:13;;;;;;;1.80;0.67;;;;;;;11.33;39.58;101227.09;5023090;28;20180;-86
2023/04/19 10:43:38;;;;;;;0.30;0.30;;;;;;;11.54;38.84;101229.50;5019521;28;20279;-86
2023/04/19 10:46:37;;;;;;;0.80;0.80;;;;;;;11.57;37.58;101196.88;5019413;28;20315;-86
2023/04/19 10:49:04;;;;;;;0.60;0.60;;;;;;;11.46;37.57;101189.94;5015272;28;20193;-86
2023/04/19 10:51:35;;;;;;;0.80;0.73;;;;;;;11.80;38.13;101189.66;5014972;28;20204;-86
2023/04/19 10:54:01;;;;;;;0.87;0.87;;;;;;;11.78;36.74;101185.56;5014555;28;20549;-85
2023/04/19 10:56:32;;;;;;;1.23;0.40;;;;;;;11.69;35.48;101151.78;5015051;28;20651;-85
2023/04/19 10:59:06;;;;;;;0.80;0.80;;;;;;;11.72;35.58;101140.25;5014073;28;20207;-85
2023/04/19 11:01:36;;;;;;;0.90;0.80;;;;;;;11.84;34.84;101135.09;5013736;28;20777;-85
2023/04/19 11:04:01;;;;;;;1.47;0.83;;;;;;;11.74;34.62;101114.19;5013543;28;20192;-84
2023/04/19 11:06:27;;;;;;;0.47;0.30;;;;;;;11.93;35.32;101187.25;5014317;28;20177;-86
2023/04/19 11:08:53;;;;;;;0.53;0.53;;;;;;;11.83;34.96;101174.56;5013845;28;20552;-85
2023/04/19 11:11:21;;;;;;;0.70;0.70;;;;;;;11.91;34.65;101162.91;5012811;28;20172;-85
2023/04/19 11:13:47;;;;;;;1.00;0.60;;;;;;;11.93;34.07;101159.88;5012926;28;20196;-85
2023/04/19 11:16:12;;;;;;;1.70;1.07;;;;;;;12.06;35.31;101173.56;5012873;28;20591;-85
2023/04/19 11:18:38;;;;;;;1.17;0.80;;;;;;;12.02;34.79;101158.06;5013348;28;20239;-85
2023/04/19 11:21:04;;;;;;;0.63;0.63;;;;;;;12.08;35.05;101165.88;5014584;28;20183;-85
2023/04/19 11:23:29;;;;;;;1.47;1.00;;;;;;;11.97;34.58;101147.19;5014065;28;20195;-87
2023/04/19 11:25:54;;;;;;;2.93;0.57;;;;;;;12.12;34.17;101152.38;5013802;28;20205;-86